createdAt,value
2016-12-11T00:00:02.268Z,958.58
2016-12-11T00:00:28.273Z,958.55
2016-12-11T00:00:54.259Z,958.56
2016-12-11T00:01:20.240Z,958.52
2016-12-11T00:01:46.225Z,958.54
2016-12-11T00:02:12.221Z,958.5
2016-12-11T00:02:38.205Z,958.52
2016-12-11T00:03:04.242Z,958.48
2016-12-11T00:03:30.280Z,958.5
2016-12-11T00:03:56.475Z,958.47
2016-12-11T00:04:22.438Z,958.47
2016-12-11T00:04:48.429Z,958.48
2016-12-11T00:05:14.427Z,958.47
2016-12-11T00:05:40.403Z,958.47
2016-12-11T00:06:06.396Z,958.44
2016-12-11T00:06:32.390Z,958.49
2016-12-11T00:06:58.384Z,958.49
2016-12-11T00:07:24.370Z,958.45
2016-12-11T00:07:50.357Z,958.45
2016-12-11T00:08:16.338Z,958.46
2016-12-11T00:08:42.331Z,958.47
2016-12-11T00:09:08.313Z,958.44
2016-12-11T00:09:34.300Z,958.41
2016-12-11T00:10:00.290Z,958.44
2016-12-11T00:10:26.271Z,958.43
2016-12-11T00:10:52.257Z,958.44
2016-12-11T00:11:18.242Z,958.42
2016-12-11T00:11:44.225Z,958.43
2016-12-11T00:12:10.211Z,958.43
2016-12-11T00:12:36.198Z,958.36
2016-12-11T00:13:02.197Z,958.42
2016-12-11T00:13:28.196Z,958.38
2016-12-11T00:13:54.182Z,958.39
2016-12-11T00:14:20.163Z,958.4
2016-12-11T00:14:46.154Z,958.41
2016-12-11T00:15:12.133Z,958.36
2016-12-11T00:15:38.117Z,958.38
2016-12-11T00:16:04.098Z,958.35
2016-12-11T00:16:30.083Z,958.28
2016-12-11T00:16:56.070Z,958.31
2016-12-11T00:17:22.055Z,958.31
2016-12-11T00:17:48.037Z,958.34
2016-12-11T00:18:14.022Z,958.31
2016-12-11T00:18:40.024Z,958.31
2016-12-11T00:19:06.008Z,958.25
2016-12-11T00:19:31.991Z,958.31
2016-12-11T00:19:57.974Z,958.28
2016-12-11T00:20:23.957Z,958.27
2016-12-11T00:20:49.943Z,958.29
2016-12-11T00:21:15.928Z,958.3
2016-12-11T00:21:41.910Z,958.27
2016-12-11T00:22:07.896Z,958.27
2016-12-11T00:22:33.880Z,958.25
2016-12-11T00:22:59.863Z,958.31
2016-12-11T00:23:25.848Z,958.31
2016-12-11T00:23:51.870Z,958.25
2016-12-11T00:24:17.826Z,958.27
2016-12-11T00:24:43.816Z,958.27
2016-12-11T00:25:09.800Z,958.27
2016-12-11T00:25:35.784Z,958.26
2016-12-11T00:26:01.775Z,958.24
2016-12-11T00:26:27.759Z,958.22
2016-12-11T00:26:53.745Z,958.23
2016-12-11T00:27:19.728Z,958.22
2016-12-11T00:27:45.711Z,958.22
2016-12-11T00:28:11.706Z,958.23
2016-12-11T00:28:37.702Z,958.19
2016-12-11T00:29:03.698Z,958.18
2016-12-11T00:29:29.689Z,958.19
2016-12-11T00:29:55.677Z,958.18
2016-12-11T00:30:21.661Z,958.19
2016-12-11T00:30:47.652Z,958.17
2016-12-11T00:31:13.661Z,958.14
2016-12-11T00:31:39.647Z,958.14
2016-12-11T00:32:05.633Z,958.17
2016-12-11T00:32:31.627Z,958.14
2016-12-11T00:32:57.613Z,958.17
2016-12-11T00:33:23.596Z,958.16
2016-12-11T00:33:49.579Z,958.17
2016-12-11T00:34:15.565Z,958.13
2016-12-11T00:34:41.549Z,958.15
2016-12-11T00:35:07.583Z,958.13
2016-12-11T00:35:33.584Z,958.14
2016-12-11T00:35:59.571Z,958.14
2016-12-11T00:36:25.569Z,958.14
2016-12-11T00:36:51.575Z,958.1
2016-12-11T00:37:17.598Z,958.09
2016-12-11T00:37:43.603Z,958.14
2016-12-11T00:38:09.587Z,958.12
2016-12-11T00:38:35.572Z,958.1
2016-12-11T00:39:01.569Z,958.08
2016-12-11T00:39:27.597Z,958.1
2016-12-11T00:39:53.617Z,958.06
2016-12-11T00:40:19.598Z,958.09
2016-12-11T00:40:45.588Z,958.05
2016-12-11T00:41:11.577Z,958.08
2016-12-11T00:41:37.564Z,958.08
2016-12-11T00:42:03.548Z,958.06
2016-12-11T00:42:29.529Z,958.07
2016-12-11T00:42:55.518Z,958.06
2016-12-11T00:43:21.506Z,958.06
2016-12-11T00:43:47.489Z,958.04
2016-12-11T00:44:13.481Z,958.06
2016-12-11T00:44:39.467Z,958.09
2016-12-11T00:45:05.464Z,958
2016-12-11T00:45:31.457Z,957.97
2016-12-11T00:45:57.449Z,958.01
2016-12-11T00:46:23.425Z,958.04
2016-12-11T00:46:49.417Z,957.99
2016-12-11T00:47:15.397Z,958
2016-12-11T00:47:41.379Z,958.05
2016-12-11T00:48:07.365Z,957.99
2016-12-11T00:48:33.364Z,958.02
2016-12-11T00:48:59.346Z,958.02
2016-12-11T00:49:25.354Z,958.03
2016-12-11T00:49:51.337Z,958.02
2016-12-11T00:50:17.325Z,958
2016-12-11T00:50:43.312Z,957.96
2016-12-11T00:51:09.294Z,958.03
2016-12-11T00:51:35.483Z,957.99
2016-12-11T00:52:01.636Z,958.03
2016-12-11T00:52:27.624Z,958.02
2016-12-11T00:52:53.612Z,958
2016-12-11T00:53:19.591Z,958.01
2016-12-11T00:53:45.577Z,958.02
2016-12-11T00:54:11.567Z,958.01
2016-12-11T00:54:37.550Z,958.01
2016-12-11T00:55:03.524Z,958.03
2016-12-11T00:55:29.509Z,958.02
2016-12-11T00:55:55.494Z,958.02
2016-12-11T00:56:21.485Z,958.02
2016-12-11T00:56:47.473Z,958.03
2016-12-11T00:57:13.457Z,958.03
2016-12-11T00:57:39.442Z,958
2016-12-11T00:58:05.426Z,958.04
2016-12-11T00:58:31.408Z,958.01
2016-12-11T00:58:57.391Z,958.03
2016-12-11T00:59:23.376Z,957.98
2016-12-11T00:59:49.360Z,958.02
2016-12-11T01:00:15.383Z,958.02
2016-12-11T01:00:41.367Z,958
2016-12-11T01:01:07.350Z,958.01
2016-12-11T01:01:33.333Z,958.03
2016-12-11T01:01:59.316Z,958
2016-12-11T01:02:25.303Z,958.03
2016-12-11T01:02:51.294Z,958.02
2016-12-11T01:03:17.280Z,958.01
2016-12-11T01:03:43.264Z,958.01
2016-12-11T01:04:09.270Z,958.01
2016-12-11T01:04:35.254Z,958
2016-12-11T01:05:01.236Z,958.04
2016-12-11T01:05:27.223Z,958.05
2016-12-11T01:05:53.227Z,958.01
2016-12-11T01:06:19.211Z,958.03
2016-12-11T01:06:45.196Z,958.01
2016-12-11T01:07:11.181Z,957.99
2016-12-11T01:07:37.167Z,958
2016-12-11T01:08:03.173Z,958.05
2016-12-11T01:08:29.155Z,958.04
2016-12-11T01:08:55.144Z,958.01
2016-12-11T01:09:21.125Z,958
2016-12-11T01:09:47.107Z,958.02
2016-12-11T01:10:13.126Z,958.04
2016-12-11T01:10:39.107Z,958.03
2016-12-11T01:11:05.107Z,958.04
2016-12-11T01:11:31.094Z,958.06
2016-12-11T01:11:57.079Z,958.06
2016-12-11T01:12:23.084Z,958.06
2016-12-11T01:12:49.076Z,958.07
2016-12-11T01:13:15.062Z,958.05
2016-12-11T01:13:41.047Z,958.08
2016-12-11T01:14:07.041Z,958.02
2016-12-11T01:14:33.021Z,958.06
2016-12-11T01:14:59.028Z,958.03
2016-12-11T01:15:25.001Z,958.03
2016-12-11T01:15:50.986Z,958.04
2016-12-11T01:16:16.970Z,958.04
2016-12-11T01:16:42.975Z,958.05
2016-12-11T01:17:08.957Z,958.03
2016-12-11T01:17:34.945Z,958.02
2016-12-11T01:18:00.928Z,958
2016-12-11T01:18:26.921Z,958.01
2016-12-11T01:18:52.921Z,957.98
2016-12-11T01:19:18.907Z,958.01
2016-12-11T01:19:44.897Z,957.99
2016-12-11T01:20:10.880Z,958.01
2016-12-11T01:20:36.865Z,958.03
2016-12-11T01:21:02.852Z,958
2016-12-11T01:21:28.834Z,958
2016-12-11T01:21:54.823Z,957.99
2016-12-11T01:22:20.808Z,957.99
2016-12-11T01:22:46.789Z,957.96
2016-12-11T01:23:12.784Z,957.98
2016-12-11T01:23:38.768Z,957.96
2016-12-11T01:24:04.753Z,957.97
2016-12-11T01:24:30.770Z,957.98
2016-12-11T01:24:56.759Z,957.96
2016-12-11T01:25:22.743Z,957.94
2016-12-11T01:25:48.731Z,957.96
2016-12-11T01:26:14.719Z,957.97
2016-12-11T01:26:40.704Z,957.93
2016-12-11T01:27:06.689Z,957.95
2016-12-11T01:27:32.677Z,957.95
2016-12-11T01:27:58.656Z,957.93
2016-12-11T01:28:24.643Z,957.93
2016-12-11T01:28:50.657Z,957.95
2016-12-11T01:29:16.645Z,957.92
2016-12-11T01:29:42.629Z,957.9
2016-12-11T01:30:08.614Z,957.9
2016-12-11T01:30:34.598Z,957.87
2016-12-11T01:31:00.599Z,957.9
2016-12-11T01:31:26.585Z,957.88
2016-12-11T01:31:52.568Z,957.92
2016-12-11T01:32:18.551Z,957.88
2016-12-11T01:32:44.535Z,957.86
2016-12-11T01:33:10.532Z,957.86
2016-12-11T01:33:36.513Z,957.81
2016-12-11T01:34:02.498Z,957.86
2016-12-11T01:34:28.484Z,957.81
2016-12-11T01:34:54.470Z,957.87
2016-12-11T01:35:20.458Z,957.83
2016-12-11T01:35:46.444Z,957.81
2016-12-11T01:36:12.425Z,957.79
2016-12-11T01:36:38.408Z,957.81
2016-12-11T01:37:04.392Z,957.8
2016-12-11T01:37:30.376Z,957.79
2016-12-11T01:37:56.358Z,957.8
2016-12-11T01:38:22.381Z,957.79
2016-12-11T01:38:48.368Z,957.79
2016-12-11T01:39:14.355Z,957.75
2016-12-11T01:39:40.343Z,957.75
2016-12-11T01:40:06.343Z,957.74
2016-12-11T01:40:32.328Z,957.73
2016-12-11T01:40:58.322Z,957.72
2016-12-11T01:41:24.306Z,957.76
2016-12-11T01:41:50.289Z,957.75
2016-12-11T01:42:16.285Z,957.73
2016-12-11T01:42:42.274Z,957.76
2016-12-11T01:43:08.259Z,957.73
2016-12-11T01:43:34.243Z,957.74
2016-12-11T01:44:00.232Z,957.75
2016-12-11T01:44:26.214Z,957.71
2016-12-11T01:44:52.200Z,957.72
2016-12-11T01:45:18.183Z,957.7
2016-12-11T01:45:44.169Z,957.69
2016-12-11T01:46:10.158Z,957.69
2016-12-11T01:46:36.156Z,957.68
2016-12-11T01:47:02.156Z,957.67
2016-12-11T01:47:28.163Z,957.65
2016-12-11T01:47:54.148Z,957.64
2016-12-11T01:48:20.131Z,957.64
2016-12-11T01:48:46.156Z,957.65
2016-12-11T01:49:12.122Z,957.65
2016-12-11T01:49:38.109Z,957.6
2016-12-11T01:50:04.136Z,957.65
2016-12-11T01:50:30.117Z,957.62
2016-12-11T01:50:56.104Z,957.64
2016-12-11T01:51:22.088Z,957.61
2016-12-11T01:51:48.099Z,957.61
2016-12-11T01:52:14.057Z,957.63
2016-12-11T01:52:40.045Z,957.59
2016-12-11T01:53:06.032Z,957.6
2016-12-11T01:53:32.015Z,957.57
2016-12-11T01:53:58.004Z,957.58
2016-12-11T01:54:23.993Z,957.56
2016-12-11T01:54:49.980Z,957.55
2016-12-11T01:55:15.971Z,957.54
2016-12-11T01:55:41.951Z,957.6
2016-12-11T01:56:07.938Z,957.55
2016-12-11T01:56:33.923Z,957.54
2016-12-11T01:56:59.906Z,957.55
2016-12-11T01:57:25.889Z,957.54
2016-12-11T01:57:51.874Z,957.56
2016-12-11T01:58:17.866Z,957.51
2016-12-11T01:58:43.848Z,957.51
2016-12-11T01:59:09.837Z,957.48
2016-12-11T01:59:35.825Z,957.52
2016-12-11T02:00:01.818Z,957.5
2016-12-11T02:00:27.806Z,957.48
2016-12-11T02:00:53.792Z,957.45
2016-12-11T02:01:19.781Z,957.47
2016-12-11T02:01:45.762Z,957.48
2016-12-11T02:02:11.746Z,957.45
2016-12-11T02:02:37.749Z,957.46
2016-12-11T02:03:03.732Z,957.46
2016-12-11T02:03:29.719Z,957.46
2016-12-11T02:03:55.715Z,957.45
2016-12-11T02:04:21.700Z,957.47
2016-12-11T02:04:47.682Z,957.44
2016-12-11T02:05:13.665Z,957.44
2016-12-11T02:05:39.650Z,957.41
2016-12-11T02:06:05.633Z,957.4
2016-12-11T02:06:31.617Z,957.4
2016-12-11T02:06:57.600Z,957.38
2016-12-11T02:07:23.592Z,957.34
2016-12-11T02:07:49.587Z,957.34
2016-12-11T02:08:15.569Z,957.33
2016-12-11T02:08:41.551Z,957.29
2016-12-11T02:09:07.544Z,957.34
2016-12-11T02:09:33.526Z,957.33
2016-12-11T02:09:59.511Z,957.34
2016-12-11T02:10:25.497Z,957.31
2016-12-11T02:10:51.484Z,957.31
2016-12-11T02:11:17.471Z,957.33
2016-12-11T02:11:43.459Z,957.3
2016-12-11T02:12:09.457Z,957.3
2016-12-11T02:12:35.443Z,957.31
2016-12-11T02:13:01.428Z,957.3
2016-12-11T02:13:27.416Z,957.3
2016-12-11T02:13:53.434Z,957.3
2016-12-11T02:14:19.418Z,957.31
2016-12-11T02:14:45.414Z,957.3
2016-12-11T02:15:11.416Z,957.26
2016-12-11T02:15:37.408Z,957.3
2016-12-11T02:16:03.405Z,957.32
2016-12-11T02:16:29.386Z,957.33
2016-12-11T02:16:55.370Z,957.29
2016-12-11T02:17:21.356Z,957.31
2016-12-11T02:17:47.339Z,957.32
2016-12-11T02:18:13.324Z,957.33
2016-12-11T02:18:39.314Z,957.33
2016-12-11T02:19:05.294Z,957.31
2016-12-11T02:19:31.279Z,957.31
2016-12-11T02:19:57.264Z,957.33
2016-12-11T02:20:23.248Z,957.32
2016-12-11T02:20:49.234Z,957.35
2016-12-11T02:21:15.216Z,957.36
2016-12-11T02:21:41.225Z,957.35
2016-12-11T02:22:07.213Z,957.33
2016-12-11T02:22:33.203Z,957.27
2016-12-11T02:22:59.208Z,957.34
2016-12-11T02:23:25.185Z,957.35
2016-12-11T02:23:51.185Z,957.31
2016-12-11T02:24:17.177Z,957.33
2016-12-11T02:24:43.192Z,957.34
2016-12-11T02:25:09.197Z,957.35
2016-12-11T02:25:35.185Z,957.3
2016-12-11T02:26:01.166Z,957.28
2016-12-11T02:26:27.154Z,957.29
2016-12-11T02:26:53.150Z,957.29
2016-12-11T02:27:19.135Z,957.3
2016-12-11T02:27:45.121Z,957.26
2016-12-11T02:28:11.108Z,957.27
2016-12-11T02:28:37.094Z,957.25
2016-12-11T02:29:03.080Z,957.28
2016-12-11T02:29:29.192Z,957.24
2016-12-11T02:29:55.177Z,957.28
2016-12-11T02:30:21.160Z,957.2
2016-12-11T02:30:47.150Z,957.26
2016-12-11T02:31:13.131Z,957.29
2016-12-11T02:31:39.120Z,957.27
2016-12-11T02:32:05.103Z,957.27
2016-12-11T02:32:31.087Z,957.27
2016-12-11T02:32:57.075Z,957.25
2016-12-11T02:33:23.059Z,957.28
2016-12-11T02:33:49.046Z,957.26
2016-12-11T02:34:15.034Z,957.25
2016-12-11T02:34:41.027Z,957.22
2016-12-11T02:35:07.014Z,957.26
2016-12-11T02:35:32.997Z,957.27
2016-12-11T02:35:58.981Z,957.23
2016-12-11T02:36:24.964Z,957.25
2016-12-11T02:36:50.950Z,957.23
2016-12-11T02:37:16.936Z,957.25
2016-12-11T02:37:42.919Z,957.25
2016-12-11T02:38:08.909Z,957.21
2016-12-11T02:38:34.893Z,957.24
2016-12-11T02:39:00.880Z,957.25
2016-12-11T02:39:26.866Z,957.23
2016-12-11T02:39:52.855Z,957.25
2016-12-11T02:40:18.848Z,957.23
2016-12-11T02:40:44.830Z,957.22
2016-12-11T02:41:10.811Z,957.24
2016-12-11T02:41:36.798Z,957.24
2016-12-11T02:42:02.782Z,957.25
2016-12-11T02:42:28.777Z,957.22
2016-12-11T02:42:54.785Z,957.24
2016-12-11T02:43:20.773Z,957.25
2016-12-11T02:43:46.757Z,957.27
2016-12-11T02:44:12.777Z,957.25
2016-12-11T02:44:38.725Z,957.27
2016-12-11T02:45:04.711Z,957.23
2016-12-11T02:45:30.750Z,957.28
2016-12-11T02:45:56.733Z,957.24
2016-12-11T02:46:22.719Z,957.25
2016-12-11T02:46:48.704Z,957.24
2016-12-11T02:47:14.688Z,957.29
2016-12-11T02:47:40.681Z,957.28
2016-12-11T02:48:06.673Z,957.27
2016-12-11T02:48:32.661Z,957.28
2016-12-11T02:48:58.658Z,957.25
2016-12-11T02:49:24.643Z,957.28
2016-12-11T02:49:50.625Z,957.29
2016-12-11T02:50:16.612Z,957.28
2016-12-11T02:50:42.596Z,957.31
2016-12-11T02:51:08.580Z,957.24
2016-12-11T02:51:34.581Z,957.29
2016-12-11T02:52:00.568Z,957.31
2016-12-11T02:52:26.551Z,957.29
2016-12-11T02:52:52.537Z,957.3
2016-12-11T02:53:18.547Z,957.29
2016-12-11T02:53:44.519Z,957.32
2016-12-11T02:54:10.502Z,957.32
2016-12-11T02:54:36.486Z,957.32
2016-12-11T02:55:02.472Z,957.34
2016-12-11T02:55:28.467Z,957.34
2016-12-11T02:55:54.468Z,957.33
2016-12-11T02:56:20.471Z,957.34
2016-12-11T02:56:46.471Z,957.36
2016-12-11T02:57:12.460Z,957.32
2016-12-11T02:57:38.470Z,957.35
2016-12-11T02:58:04.471Z,957.37
2016-12-11T02:58:30.494Z,957.29
2016-12-11T02:58:56.487Z,957.34
2016-12-11T02:59:22.471Z,957.35
2016-12-11T02:59:48.479Z,957.34
2016-12-11T03:00:14.480Z,957.33
2016-12-11T03:00:40.475Z,957.33
2016-12-11T03:01:06.463Z,957.33
2016-12-11T03:01:32.450Z,957.32
2016-12-11T03:01:58.434Z,957.34
2016-12-11T03:02:24.418Z,957.32
2016-12-11T03:02:50.406Z,957.35
2016-12-11T03:03:16.390Z,957.32
2016-12-11T03:03:42.378Z,957.33
2016-12-11T03:04:08.355Z,957.34
2016-12-11T03:04:34.336Z,957.32
2016-12-11T03:05:00.322Z,957.34
2016-12-11T03:05:26.330Z,957.34
2016-12-11T03:05:52.316Z,957.3
2016-12-11T03:06:18.409Z,957.35
2016-12-11T03:06:44.391Z,957.37
2016-12-11T03:07:10.374Z,957.36
2016-12-11T03:07:36.358Z,957.37
2016-12-11T03:08:02.342Z,957.32
2016-12-11T03:08:28.329Z,957.32
2016-12-11T03:08:54.312Z,957.38
2016-12-11T03:09:20.304Z,957.33
2016-12-11T03:09:46.292Z,957.32
2016-12-11T03:10:12.276Z,957.31
2016-12-11T03:10:38.262Z,957.31
2016-12-11T03:11:04.248Z,957.32
2016-12-11T03:11:30.232Z,957.31
2016-12-11T03:11:56.216Z,957.3
2016-12-11T03:12:22.202Z,957.34
2016-12-11T03:12:48.185Z,957.29
2016-12-11T03:13:14.170Z,957.32
2016-12-11T03:13:40.165Z,957.28
2016-12-11T03:14:06.150Z,957.3
2016-12-11T03:14:32.133Z,957.3
2016-12-11T03:14:58.117Z,957.28
2016-12-11T03:15:24.110Z,957.31
2016-12-11T03:15:50.103Z,957.28
2016-12-11T03:16:16.106Z,957.27
2016-12-11T03:16:42.083Z,957.27
2016-12-11T03:17:08.068Z,957.24
2016-12-11T03:17:34.052Z,957.27
2016-12-11T03:18:00.068Z,957.26
2016-12-11T03:18:26.054Z,957.25
2016-12-11T03:18:52.037Z,957.27
2016-12-11T03:19:18.028Z,957.28
2016-12-11T03:19:44.016Z,957.26
2016-12-11T03:20:10.001Z,957.28
2016-12-11T03:20:35.990Z,957.26
2016-12-11T03:21:01.974Z,957.25
2016-12-11T03:21:27.959Z,957.28
2016-12-11T03:21:53.946Z,957.26
2016-12-11T03:22:19.927Z,957.29
2016-12-11T03:22:45.977Z,957.3
2016-12-11T03:23:11.925Z,957.25
2016-12-11T03:23:37.925Z,957.25
2016-12-11T03:24:03.895Z,957.27
2016-12-11T03:24:29.895Z,957.3
2016-12-11T03:24:55.887Z,957.27
2016-12-11T03:25:21.864Z,957.29
2016-12-11T03:25:47.859Z,957.28
2016-12-11T03:26:13.842Z,957.27
2016-12-11T03:26:39.827Z,957.27
2016-12-11T03:27:05.853Z,957.29
2016-12-11T03:27:31.838Z,957.28
2016-12-11T03:27:57.822Z,957.26
2016-12-11T03:28:23.842Z,957.24
2016-12-11T03:28:49.831Z,957.27
2016-12-11T03:29:15.816Z,957.28
2016-12-11T03:29:41.823Z,957.27
2016-12-11T03:30:07.791Z,957.25
2016-12-11T03:30:33.775Z,957.24
2016-12-11T03:30:59.761Z,957.27
2016-12-11T03:31:25.749Z,957.27
2016-12-11T03:31:51.760Z,957.24
2016-12-11T03:32:17.750Z,957.24
2016-12-11T03:32:43.751Z,957.26
2016-12-11T03:33:09.794Z,957.27
2016-12-11T03:33:35.787Z,957.26
2016-12-11T03:34:01.774Z,957.26
2016-12-11T03:34:27.758Z,957.28
2016-12-11T03:34:53.752Z,957.3
2016-12-11T03:35:19.799Z,957.3
2016-12-11T03:35:45.796Z,957.29
2016-12-11T03:36:11.770Z,957.27
2016-12-11T03:36:37.758Z,957.3
2016-12-11T03:37:03.749Z,957.3
2016-12-11T03:37:29.734Z,957.24
2016-12-11T03:37:55.719Z,957.28
2016-12-11T03:38:21.735Z,957.28
2016-12-11T03:38:47.725Z,957.27
2016-12-11T03:39:13.734Z,957.27
2016-12-11T03:39:39.687Z,957.24
2016-12-11T03:40:05.674Z,957.24
2016-12-11T03:40:31.657Z,957.23
2016-12-11T03:40:57.639Z,957.24
2016-12-11T03:41:23.627Z,957.26
2016-12-11T03:41:49.612Z,957.25
2016-12-11T03:42:15.594Z,957.23
2016-12-11T03:42:41.578Z,957.25
2016-12-11T03:43:07.567Z,957.27
2016-12-11T03:43:33.559Z,957.28
2016-12-11T03:43:59.546Z,957.26
2016-12-11T03:44:25.532Z,957.27
2016-12-11T03:44:51.518Z,957.24
2016-12-11T03:45:17.505Z,957.23
2016-12-11T03:45:43.489Z,957.27
2016-12-11T03:46:09.479Z,957.22
2016-12-11T03:46:35.461Z,957.17
2016-12-11T03:47:01.447Z,957.19
2016-12-11T03:47:27.436Z,957.19
2016-12-11T03:47:53.418Z,957.2
2016-12-11T03:48:19.424Z,957.2
2016-12-11T03:48:45.418Z,957.13
2016-12-11T03:49:11.404Z,957.2
2016-12-11T03:49:37.387Z,957.13
2016-12-11T03:50:03.375Z,957.14
2016-12-11T03:50:29.373Z,957.18
2016-12-11T03:50:55.371Z,957.16
2016-12-11T03:51:21.359Z,957.15
2016-12-11T03:51:47.343Z,957.14
2016-12-11T03:52:13.324Z,957.16
2016-12-11T03:52:39.307Z,957.17
2016-12-11T03:53:05.316Z,957.14
2016-12-11T03:53:31.336Z,957.17
2016-12-11T03:53:57.312Z,957.18
2016-12-11T03:54:23.328Z,957.17
2016-12-11T03:54:49.313Z,957.2
2016-12-11T03:55:15.295Z,957.19
2016-12-11T03:55:41.280Z,957.22
2016-12-11T03:56:07.292Z,957.21
2016-12-11T03:56:33.281Z,957.21
2016-12-11T03:56:59.266Z,957.22
2016-12-11T03:57:25.252Z,957.23
2016-12-11T03:57:51.237Z,957.24
2016-12-11T03:58:17.219Z,957.25
2016-12-11T03:58:43.221Z,957.26
2016-12-11T03:59:09.198Z,957.27
2016-12-11T03:59:35.185Z,957.26
2016-12-11T04:00:01.174Z,957.27
2016-12-11T04:00:27.171Z,957.27
2016-12-11T04:00:53.153Z,957.27
2016-12-11T04:01:19.139Z,957.29
2016-12-11T04:01:45.125Z,957.27
2016-12-11T04:02:11.108Z,957.26
2016-12-11T04:02:37.092Z,957.32
2016-12-11T04:03:03.075Z,957.34
2016-12-11T04:03:29.061Z,957.3
2016-12-11T04:03:55.044Z,957.3
2016-12-11T04:04:21.027Z,957.32
2016-12-11T04:04:47.043Z,957.29
2016-12-11T04:05:13.018Z,957.3
2016-12-11T04:05:38.999Z,957.28
2016-12-11T04:06:04.991Z,957.27
2016-12-11T04:06:30.987Z,957.28
2016-12-11T04:06:56.981Z,957.26
2016-12-11T04:07:22.969Z,957.28
2016-12-11T04:07:48.956Z,957.29
2016-12-11T04:08:14.945Z,957.26
2016-12-11T04:08:40.934Z,957.27
2016-12-11T04:09:06.911Z,957.24
2016-12-11T04:09:32.895Z,957.31
2016-12-11T04:09:58.896Z,957.28
2016-12-11T04:10:24.883Z,957.28
2016-12-11T04:10:50.867Z,957.27
2016-12-11T04:11:16.851Z,957.28
2016-12-11T04:11:42.836Z,957.31
2016-12-11T04:12:08.823Z,957.29
2016-12-11T04:12:34.807Z,957.29
2016-12-11T04:13:00.796Z,957.31
2016-12-11T04:13:26.792Z,957.3
2016-12-11T04:13:52.778Z,957.31
2016-12-11T04:14:18.764Z,957.33
2016-12-11T04:14:44.753Z,957.31
2016-12-11T04:15:10.736Z,957.3
2016-12-11T04:15:36.720Z,957.29
2016-12-11T04:16:02.718Z,957.31
2016-12-11T04:16:28.709Z,957.28
2016-12-11T04:16:54.692Z,957.32
2016-12-11T04:17:20.679Z,957.29
2016-12-11T04:17:46.661Z,957.32
2016-12-11T04:18:12.645Z,957.27
2016-12-11T04:18:38.628Z,957.29
2016-12-11T04:19:04.617Z,957.33
2016-12-11T04:19:30.614Z,957.32
2016-12-11T04:19:56.604Z,957.3
2016-12-11T04:20:22.587Z,957.33
2016-12-11T04:20:48.574Z,957.34
2016-12-11T04:21:14.558Z,957.32
2016-12-11T04:21:40.544Z,957.3
2016-12-11T04:22:06.529Z,957.29
2016-12-11T04:22:32.513Z,957.3
2016-12-11T04:22:58.501Z,957.3
2016-12-11T04:23:24.485Z,957.3
2016-12-11T04:23:50.471Z,957.31
2016-12-11T04:24:16.454Z,957.31
2016-12-11T04:24:42.439Z,957.28
2016-12-11T04:25:08.423Z,957.29
2016-12-11T04:25:34.414Z,957.29
2016-12-11T04:26:00.400Z,957.3
2016-12-11T04:26:26.388Z,957.25
2016-12-11T04:26:52.370Z,957.28
2016-12-11T04:27:18.373Z,957.31
2016-12-11T04:27:44.358Z,957.32
2016-12-11T04:28:10.423Z,957.3
2016-12-11T04:28:36.386Z,957.28
2016-12-11T04:29:02.366Z,957.24
2016-12-11T04:29:28.350Z,957.26
2016-12-11T04:29:54.334Z,957.3
2016-12-11T04:30:20.318Z,957.3
2016-12-11T04:30:46.303Z,957.28
2016-12-11T04:31:12.317Z,957.3
2016-12-11T04:31:38.299Z,957.29
2016-12-11T04:32:04.285Z,957.3
2016-12-11T04:32:30.270Z,957.3
2016-12-11T04:32:56.255Z,957.28
2016-12-11T04:33:22.239Z,957.31
2016-12-11T04:33:48.281Z,957.33
2016-12-11T04:34:14.241Z,957.33
2016-12-11T04:34:40.246Z,957.33
2016-12-11T04:35:06.245Z,957.36
2016-12-11T04:35:32.233Z,957.38
2016-12-11T04:35:58.228Z,957.35
2016-12-11T04:36:24.215Z,957.36
2016-12-11T04:36:50.198Z,957.34
2016-12-11T04:37:16.190Z,957.42
2016-12-11T04:37:42.171Z,957.41
2016-12-11T04:38:08.218Z,957.43
2016-12-11T04:38:34.203Z,957.4
2016-12-11T04:39:00.191Z,957.39
2016-12-11T04:39:26.178Z,957.41
2016-12-11T04:39:52.162Z,957.4
2016-12-11T04:40:18.145Z,957.42
2016-12-11T04:40:44.130Z,957.44
2016-12-11T04:41:10.114Z,957.42
2016-12-11T04:41:36.099Z,957.43
2016-12-11T04:42:02.083Z,957.46
2016-12-11T04:42:28.065Z,957.42
2016-12-11T04:42:54.054Z,957.48
2016-12-11T04:43:20.042Z,957.42
2016-12-11T04:43:46.037Z,957.43
2016-12-11T04:44:12.053Z,957.43
2016-12-11T04:44:38.060Z,957.44
2016-12-11T04:45:04.084Z,957.41
2016-12-11T04:45:30.063Z,957.43
2016-12-11T04:45:56.073Z,957.4
2016-12-11T04:46:22.069Z,957.42
2016-12-11T04:46:48.061Z,957.43
2016-12-11T04:47:14.047Z,957.38
2016-12-11T04:47:40.032Z,957.4
2016-12-11T04:48:06.026Z,957.44
2016-12-11T04:48:32.014Z,957.43
2016-12-11T04:48:57.996Z,957.45
2016-12-11T04:49:23.986Z,957.43
2016-12-11T04:49:49.967Z,957.47
2016-12-11T04:50:15.953Z,957.42
2016-12-11T04:50:41.935Z,957.43
2016-12-11T04:51:07.920Z,957.42
2016-12-11T04:51:33.915Z,957.44
2016-12-11T04:51:59.898Z,957.45
2016-12-11T04:52:25.881Z,957.45
2016-12-11T04:52:51.904Z,957.44
2016-12-11T04:53:17.859Z,957.43
2016-12-11T04:53:43.843Z,957.45
2016-12-11T04:54:09.824Z,957.44
2016-12-11T04:54:35.811Z,957.46
2016-12-11T04:55:01.796Z,957.45
2016-12-11T04:55:27.815Z,957.45
2016-12-11T04:55:53.800Z,957.47
2016-12-11T04:56:19.785Z,957.45
2016-12-11T04:56:45.768Z,957.46
2016-12-11T04:57:11.763Z,957.49
2016-12-11T04:57:37.745Z,957.48
2016-12-11T04:58:03.733Z,957.49
2016-12-11T04:58:29.720Z,957.48
2016-12-11T04:58:55.700Z,957.47
2016-12-11T04:59:21.688Z,957.47
2016-12-11T04:59:47.679Z,957.47
2016-12-11T05:00:13.669Z,957.42
2016-12-11T05:00:39.674Z,957.43
2016-12-11T05:01:05.658Z,957.42
2016-12-11T05:01:31.639Z,957.43
2016-12-11T05:01:57.634Z,957.43
2016-12-11T05:02:23.618Z,957.42
2016-12-11T05:02:49.604Z,957.47
2016-12-11T05:03:15.588Z,957.44
2016-12-11T05:03:41.590Z,957.44
2016-12-11T05:04:07.570Z,957.46
2016-12-11T05:04:33.555Z,957.44
2016-12-11T05:04:59.540Z,957.42
2016-12-11T05:05:25.527Z,957.42
2016-12-11T05:05:51.508Z,957.43
2016-12-11T05:06:17.494Z,957.48
2016-12-11T05:06:43.491Z,957.46
2016-12-11T05:07:09.481Z,957.48
2016-12-11T05:07:35.467Z,957.45
2016-12-11T05:08:01.451Z,957.46
2016-12-11T05:08:27.432Z,957.5
2016-12-11T05:08:53.417Z,957.47
2016-12-11T05:09:19.401Z,957.49
2016-12-11T05:09:45.392Z,957.5
2016-12-11T05:10:11.371Z,957.53
2016-12-11T05:10:37.360Z,957.48
2016-12-11T05:11:03.344Z,957.53
2016-12-11T05:11:29.328Z,957.5
2016-12-11T05:11:55.315Z,957.5
2016-12-11T05:12:21.307Z,957.52
2016-12-11T05:12:47.303Z,957.54
2016-12-11T05:13:13.288Z,957.51
2016-12-11T05:13:39.272Z,957.5
2016-12-11T05:14:05.256Z,957.52
2016-12-11T05:14:31.240Z,957.54
2016-12-11T05:14:57.222Z,957.56
2016-12-11T05:15:23.208Z,957.54
2016-12-11T05:15:49.189Z,957.57
2016-12-11T05:16:15.179Z,957.6
2016-12-11T05:16:41.164Z,957.52
2016-12-11T05:17:07.150Z,957.57
2016-12-11T05:17:33.156Z,957.57
2016-12-11T05:17:59.167Z,957.62
2016-12-11T05:18:25.147Z,957.61
2016-12-11T05:18:51.124Z,957.63
2016-12-11T05:19:17.113Z,957.64
2016-12-11T05:19:43.144Z,957.63
2016-12-11T05:20:09.140Z,957.65
2016-12-11T05:20:35.146Z,957.66
2016-12-11T05:21:01.125Z,957.71
2016-12-11T05:21:27.116Z,957.68
2016-12-11T05:21:53.168Z,957.7
2016-12-11T05:22:19.148Z,957.69
2016-12-11T05:22:45.128Z,957.69
2016-12-11T05:23:11.120Z,957.73
2016-12-11T05:23:37.109Z,957.7
2016-12-11T05:24:03.091Z,957.72
2016-12-11T05:24:29.075Z,957.72
2016-12-11T05:24:55.060Z,957.68
2016-12-11T05:25:21.073Z,957.69
2016-12-11T05:25:47.061Z,957.69